Time;durP1;ratioP1;P1;durP2;ratioP2;P2;SDS_P1;SDS_P2;PMS_P1;PMS_P2;Temp;Humidity;BMP_temperature;BMP_pressure;BME280_temperature;BME280_humidity;BME280_pressure;Samples;Min_cycle;Max_cycle;Signal;HPM_P1;HPM_P2
2021/04/15 00:00:46;;;;;;;9.23;3.90;;;3.90;99.90;;;;;;5089563;28;20032;-45
2021/04/15 00:03:16;;;;;;;5.20;3.75;;;3.80;99.90;;;;;;5089992;28;20032;-46
2021/04/15 00:05:42;;;;;;;3.28;2.42;;;3.80;99.90;;;;;;5090491;28;20035;-46
2021/04/15 00:08:09;;;;;;;8.52;4.05;;;3.80;99.90;;;;;;5089273;28;20074;-45
2021/04/15 00:10:38;;;;;;;4.70;3.30;;;3.70;99.90;;;;;;5090357;28;20116;-45
2021/04/15 00:13:30;;;;;;;6.10;3.67;;;3.70;99.90;;;;;;5090464;28;20085;-44
2021/04/15 00:15:56;;;;;;;5.88;3.72;;;3.60;99.90;;;;;;5089760;28;20028;-44
2021/04/15 00:18:23;;;;;;;9.90;4.38;;;3.60;99.90;;;;;;5071135;28;20497;-44
2021/04/15 00:20:48;;;;;;;6.03;3.88;;;3.60;99.90;;;;;;5090157;28;20385;-45
2021/04/15 00:23:15;;;;;;;6.30;3.67;;;3.50;99.90;;;;;;5090818;28;20073;-44
2021/04/15 00:25:40;;;;;;;7.55;3.65;;;3.60;99.90;;;;;;5071974;28;20469;-48
2021/04/15 00:28:06;;;;;;;5.47;3.85;;;3.50;99.90;;;;;;5089191;28;20290;-45
2021/04/15 00:30:32;;;;;;;6.00;4.68;;;3.50;99.90;;;;;;5089621;28;20363;-46
2021/04/15 00:32:58;;;;;;;6.20;4.13;;;3.40;99.90;;;;;;5089720;28;20040;-45
2021/04/15 00:35:23;;;;;;;6.28;4.10;;;3.30;99.90;;;;;;5089464;28;20524;-45
2021/04/15 00:37:49;;;;;;;6.10;4.13;;;3.30;99.90;;;;;;5088242;28;20020;-45
2021/04/15 00:40:18;;;;;;;5.55;4.18;;;3.20;99.90;;;;;;5089332;28;20020;-46
2021/04/15 00:42:43;;;;;;;4.80;3.83;;;3.20;99.90;;;;;;5089725;28;20040;-45
2021/04/15 00:45:16;;;;;;;6.57;3.47;;;3.10;99.90;;;;;;5089465;28;20368;-44
2021/04/15 00:47:44;;;;;;;6.07;4.00;;;3.10;99.90;;;;;;5089011;28;20111;-44
2021/04/15 00:50:26;;;;;;;6.82;4.30;;;3.00;99.90;;;;;;5089295;28;20049;-45
2021/04/15 00:52:57;;;;;;;8.43;4.28;;;3.00;99.90;;;;;;5089261;28;20044;-45
2021/04/15 00:55:24;;;;;;;;;;;2.90;99.90;;;;;;5072168;28;20020;-45
2021/04/15 00:57:51;;;;;;;6.53;4.57;;;2.90;99.90;;;;;;5088917;28;20384;-44
2021/04/15 01:00:23;;;;;;;8.93;4.28;;;2.80;99.90;;;;;;5088365;28;20028;-45
2021/04/15 01:02:49;;;;;;;6.82;4.50;;;2.80;99.90;;;;;;5089229;28;20544;-44
2021/04/15 01:05:28;;;;;;;9.27;3.95;;;2.80;99.90;;;;;;5089558;28;20028;-46
2021/04/15 01:07:54;;;;;;;11.00;5.00;;;2.80;99.90;;;;;;5088740;28;20028;-45
2021/04/15 01:10:23;;;;;;;10.88;5.05;;;2.70;99.90;;;;;;5089316;28;20105;-44
2021/04/15 01:13:12;;;;;;;9.63;5.00;;;2.70;99.90;;;;;;5089509;28;20066;-45
2021/04/15 01:15:59;;;;;;;7.97;5.10;;;2.70;99.90;;;;;;5088997;28;20055;-44
2021/04/15 01:18:35;;;;;;;10.10;5.68;;;2.60;99.90;;;;;;5087864;28;20065;-44
2021/04/15 01:21:35;;;;;;;9.32;5.03;;;2.60;99.90;;;;;;5089205;28;20831;-44
2021/04/15 01:24:06;;;;;;;10.40;5.40;;;2.60;99.90;;;;;;5089172;28;20032;-44
2021/04/15 01:27:09;;;;;;;7.38;5.10;;;2.50;99.90;;;;;;5089559;28;20106;-44
2021/04/15 01:29:52;;;;;;;9.43;5.25;;;2.50;99.90;;;;;;5088387;28;20028;-44
2021/04/15 01:32:21;;;;;;;7.20;5.20;;;2.40;99.90;;;;;;5088680;28;20031;-44
2021/04/15 01:34:55;;;;;;;10.23;5.00;;;2.30;99.90;;;;;;5088244;28;20161;-43
2021/04/15 01:37:28;;;;;;;8.00;5.18;;;2.40;99.90;;;;;;5070037;28;20415;-44
2021/04/15 01:40:12;;;;;;;8.25;4.80;;;2.30;99.90;;;;;;5088625;28;20028;-44
2021/04/15 01:42:56;;;;;;;6.82;4.15;;;2.30;99.90;;;;;;5088726;28;20024;-45
2021/04/15 01:45:22;;;;;;;9.73;4.32;;;2.20;99.90;;;;;;5088165;28;20035;-45
2021/04/15 01:47:58;;;;;;;10.10;5.05;;;2.10;99.90;;;;;;5069821;28;20485;-44
2021/04/15 01:50:40;;;;;;;6.28;4.60;;;2.10;99.90;;;;;;5088353;28;20031;-42
2021/04/15 01:53:16;;;;;;;7.97;5.15;;;2.10;99.90;;;;;;5088404;28;20170;-44
2021/04/15 01:55:48;;;;;;;11.35;5.70;;;2.00;99.90;;;;;;5088424;28;20428;-45
2021/04/15 01:58:23;;;;;;;9.35;5.82;;;1.90;99.90;;;;;;5087723;28;20030;-44
2021/04/15 02:00:55;;;;;;;7.35;5.15;;;1.90;99.90;;;;;;5086883;28;20099;-46
2021/04/15 02:03:27;;;;;;;8.18;4.55;;;1.90;99.90;;;;;;5088134;28;20487;-45
2021/04/15 02:06:00;;;;;;;8.23;5.00;;;1.90;99.90;;;;;;5087651;28;20153;-46
2021/04/15 02:08:33;;;;;;;9.57;4.97;;;1.80;99.90;;;;;;5087355;28;20024;-44
2021/04/15 02:11:08;;;;;;;9.07;5.32;;;1.80;99.90;;;;;;5087614;28;20024;-45
2021/04/15 02:13:37;;;;;;;8.75;4.68;;;1.80;99.90;;;;;;5088477;28;20020;-45
2021/04/15 02:16:09;;;;;;;10.30;5.00;;;1.80;99.90;;;;;;5088073;28;20024;-47
2021/04/15 02:18:43;;;;;;;8.52;4.95;;;1.80;99.90;;;;;;5068879;28;20336;-44
2021/04/15 02:21:32;;;;;;;13.05;5.55;;;1.80;99.90;;;;;;5087584;28;20243;-45
2021/04/15 02:24:22;;;;;;;13.25;5.65;;;1.70;99.90;;;;;;5038830;28;20040;-44
2021/04/15 02:26:53;;;;;;;11.65;5.78;;;1.60;99.90;;;;;;5087760;28;20027;-44
2021/04/15 02:29:26;;;;;;;9.73;5.43;;;1.60;99.90;;;;;;5087262;28;20032;-44
2021/04/15 02:32:29;;;;;;;10.68;5.75;;;1.50;99.90;;;;;;5086937;28;20020;-44
2021/04/15 02:35:08;;;;;;;8.52;6.53;;;1.50;99.90;;;;;;5032225;28;20060;-45
2021/04/15 02:37:38;;;;;;;12.57;5.57;;;1.50;99.90;;;;;;5086276;28;20221;-45
2021/04/15 02:40:14;;;;;;;10.73;5.43;;;1.40;99.90;;;;;;5087545;28;20069;-45
2021/04/15 02:42:42;;;;;;;8.32;5.32;;;1.40;99.90;;;;;;5069284;28;20429;-45
2021/04/15 02:45:31;;;;;;;6.35;4.35;;;1.40;99.90;;;;;;5087257;28;20107;-45
2021/04/15 02:48:25;;;;;;;9.45;5.90;;;1.30;99.90;;;;;;5086929;28;20527;-44
2021/04/15 02:51:06;;;;;;;7.47;4.88;;;1.30;99.90;;;;;;5087011;28;20039;-45
2021/04/15 02:53:38;;;;;;;;;;;1.20;99.90;;;;;;5087846;28;20170;-46
2021/04/15 02:56:24;;;;;;;11.30;5.72;;;1.20;99.90;;;;;;5087461;28;19915;-45
2021/04/15 02:59:06;;;;;;;8.57;5.57;;;1.20;99.90;;;;;;5086551;28;20020;-46
2021/04/15 03:01:39;;;;;;;7.57;4.78;;;1.30;99.90;;;;;;5091831;28;20024;-46
2021/04/15 03:04:10;;;;;;;10.02;6.25;;;1.20;99.90;;;;;;5093855;28;20028;-45
2021/04/15 03:06:36;;;;;;;8.63;6.43;;;1.10;99.90;;;;;;5094264;28;20438;-45
2021/04/15 03:09:08;;;;;;;9.93;5.55;;;1.10;99.90;;;;;;5093511;28;20119;-47
2021/04/15 03:11:41;;;;;;;9.23;5.30;;;1.10;99.90;;;;;;5093712;28;20031;-45
2021/04/15 03:14:12;;;;;;;8.90;5.50;;;1.10;99.90;;;;;;5092907;28;20107;-45
2021/04/15 03:16:40;;;;;;;;;;;1.10;99.90;;;;;;5099061;28;20179;-45
2021/04/15 03:19:38;;;;;;;8.25;5.03;;;1.10;99.90;;;;;;5100077;28;19951;-45
2021/04/15 03:22:06;;;;;;;9.32;5.40;;;1.00;99.90;;;;;;5094598;28;20295;-45
2021/04/15 03:24:44;;;;;;;10.15;5.50;;;1.00;99.90;;;;;;5093299;28;20032;-45
2021/04/15 03:27:17;;;;;;;11.60;5.95;;;1.00;99.90;;;;;;5095472;28;20102;-45
2021/04/15 03:30:03;;;;;;;11.77;6.25;;;1.00;99.90;;;;;;5090793;28;20258;-44
2021/04/15 03:32:34;;;;;;;12.93;6.07;;;0.90;99.90;;;;;;5096350;28;20093;-45
2021/04/15 03:35:25;;;;;;;11.20;5.65;;;0.90;99.90;;;;;;5095091;28;20091;-46
2021/04/15 03:37:57;;;;;;;9.68;5.82;;;0.90;99.90;;;;;;5095603;28;20024;-45
2021/04/15 03:40:25;;;;;;;10.68;5.47;;;0.90;99.90;;;;;;5094904;28;20039;-45
2021/04/15 03:43:14;;;;;;;9.88;5.40;;;0.90;99.90;;;;;;5087833;28;20111;-44
2021/04/15 03:45:48;;;;;;;11.25;6.38;;;0.90;99.90;;;;;;5093540;28;20031;-45
2021/04/15 03:48:20;;;;;;;8.18;5.88;;;0.80;99.90;;;;;;5090415;28;20042;-45
2021/04/15 03:51:00;;;;;;;9.23;5.47;;;0.80;99.90;;;;;;5078500;28;20411;-45
2021/04/15 03:53:36;;;;;;;11.80;5.68;;;0.80;99.90;;;;;;5092363;28;20512;-45
2021/04/15 03:56:05;;;;;;;10.52;5.78;;;0.80;99.90;;;;;;5088740;28;20020;-45
2021/04/15 03:58:40;;;;;;;11.52;5.60;;;0.80;99.90;;;;;;5092326;28;20028;-45
2021/04/15 04:01:14;;;;;;;10.30;5.32;;;0.80;99.90;;;;;;5090061;28;20024;-44
2021/04/15 04:03:42;;;;;;;13.50;6.50;;;0.80;99.90;;;;;;5093436;28;20190;-45
2021/04/15 04:06:36;;;;;;;9.13;5.63;;;0.80;99.90;;;;;;5093590;28;20035;-46
2021/04/15 04:09:14;;;;;;;11.90;5.75;;;0.70;99.90;;;;;;5090501;28;20111;-45
2021/04/15 04:11:42;;;;;;;10.10;5.82;;;0.70;99.90;;;;;;5092850;28;20093;-45
2021/04/15 04:14:16;;;;;;;9.60;5.47;;;0.70;99.90;;;;;;5090493;28;20016;-42
2021/04/15 04:16:55;;;;;;;9.10;5.65;;;0.60;99.90;;;;;;5071371;28;20017;-42
2021/04/15 04:19:34;;;;;;;8.73;5.57;;;0.50;99.90;;;;;;5086638;28;20470;-42
2021/04/15 04:22:12;;;;;;;18.80;7.30;;;0.60;99.90;;;;;;5088327;28;20481;-43
2021/04/15 04:24:57;;;;;;;10.73;5.35;;;0.60;99.90;;;;;;5090477;28;20027;-43
2021/04/15 04:27:33;;;;;;;13.73;6.05;;;0.50;99.90;;;;;;5089898;28;20108;-42
2021/04/15 04:30:11;;;;;;;11.52;5.93;;;0.50;99.90;;;;;;5090242;28;20393;-46
2021/04/15 04:32:39;;;;;;;11.82;6.30;;;0.50;99.90;;;;;;5089830;28;20489;-43
2021/04/15 04:35:07;;;;;;;8.40;6.30;;;0.60;99.90;;;;;;5090210;28;20020;-43
2021/04/15 04:37:43;;;;;;;15.15;6.57;;;0.50;99.90;;;;;;5089384;28;20035;-46
2021/04/15 04:40:16;;;;;;;11.20;6.13;;;0.60;99.90;;;;;;5090105;28;20111;-43
2021/04/15 04:42:53;;;;;;;9.52;6.38;;;0.60;99.90;;;;;;5089476;28;20034;-43
2021/04/15 04:45:22;;;;;;;10.77;6.20;;;0.60;99.90;;;;;;5085647;28;20024;-44
2021/04/15 04:48:03;;;;;;;9.43;6.40;;;0.60;99.90;;;;;;5091872;28;20035;-44
2021/04/15 04:50:44;;;;;;;13.10;7.22;;;0.60;99.90;;;;;;5086339;28;20028;-44
2021/04/15 04:53:28;;;;;;;13.75;7.47;;;0.70;99.90;;;;;;5098028;28;20401;-45
2021/04/15 04:56:21;;;;;;;14.55;7.55;;;0.70;99.90;;;;;;5089507;28;20028;-44
2021/04/15 04:58:54;;;;;;;12.00;7.53;;;0.70;99.90;;;;;;5088745;28;20032;-45
2021/04/15 05:01:20;;;;;;;13.25;7.15;;;0.70;99.90;;;;;;5088306;28;20298;-45
2021/04/15 05:03:45;;;;;;;17.20;7.75;;;0.80;99.90;;;;;;5089258;28;20024;-46
2021/04/15 05:06:23;;;;;;;13.73;7.95;;;0.90;99.90;;;;;;5084027;28;20031;-45
2021/04/15 05:09:07;;;;;;;17.88;7.88;;;0.90;99.90;;;;;;5096131;28;20016;-44
2021/04/15 05:11:38;;;;;;;15.63;7.85;;;0.90;99.90;;;;;;5097640;28;20028;-44
2021/04/15 05:14:05;;;;;;;17.88;7.65;;;1.00;99.90;;;;;;5094724;28;20518;-44
2021/04/15 05:16:44;;;;;;;14.45;8.70;;;1.00;99.90;;;;;;5098011;28;20087;-46
2021/04/15 05:19:10;;;;;;;10.82;7.35;;;1.10;99.90;;;;;;5094287;28;20361;-44
2021/04/15 05:21:38;;;;;;;11.77;7.03;;;1.10;99.90;;;;;;5097063;28;20458;-45
2021/04/15 05:24:24;;;;;;;13.55;7.60;;;1.10;99.90;;;;;;5108238;28;20015;-47
2021/04/15 05:26:51;;;;;;;14.80;8.20;;;1.10;99.90;;;;;;5109412;28;20115;-43
2021/04/15 05:29:22;;;;;;;15.77;8.07;;;1.10;99.90;;;;;;5108594;28;20606;-43
2021/04/15 05:31:52;;;;;;;14.18;8.93;;;1.20;99.90;;;;;;5089396;28;20032;-45
2021/04/15 05:34:20;;;;;;;15.82;9.15;;;1.20;99.90;;;;;;5088554;28;20032;-43
2021/04/15 05:36:47;;;;;;;16.00;9.35;;;1.30;99.90;;;;;;5088882;28;20031;-43
2021/04/15 05:39:16;;;;;;;20.27;9.85;;;1.30;99.90;;;;;;5088019;28;20027;-43
2021/04/15 05:41:58;;;;;;;14.15;9.35;;;1.40;99.90;;;;;;5088051;28;20043;-43
2021/04/15 05:44:36;;;;;;;18.30;8.70;;;1.30;99.90;;;;;;5087591;28;20386;-45
2021/04/15 05:47:04;;;;;;;13.80;8.77;;;1.40;99.90;;;;;;5088149;28;20032;-46
2021/04/15 05:49:36;;;;;;;14.55;8.73;;;1.50;99.90;;;;;;5087859;28;20412;-45
2021/04/15 05:52:18;;;;;;;14.48;8.35;;;1.60;99.90;;;;;;5088008;28;20489;-45
2021/04/15 05:54:45;;;;;;;17.23;8.88;;;1.60;99.90;;;;;;5088168;28;20523;-46
2021/04/15 05:57:19;;;;;;;18.75;8.07;;;1.70;99.90;;;;;;5087771;28;20477;-45
2021/04/15 06:00:10;;;;;;;16.70;8.82;;;1.70;99.90;;;;;;5090779;28;20034;-46
2021/04/15 06:02:51;;;;;;;16.85;9.10;;;1.80;99.90;;;;;;5092015;28;20056;-47
2021/04/15 06:05:34;;;;;;;21.27;9.45;;;2.00;99.90;;;;;;5088018;28;20016;-45
2021/04/15 06:08:06;;;;;;;16.17;9.43;;;2.00;99.90;;;;;;5087304;28;20032;-45
2021/04/15 06:10:39;;;;;;;15.82;8.63;;;2.00;99.90;;;;;;5087976;28;20111;-45
2021/04/15 06:13:07;;;;;;;24.83;7.95;;;2.10;99.90;;;;;;5087746;28;20032;-45
2021/04/15 06:15:42;;;;;;;13.90;7.88;;;2.20;99.90;;;;;;5072299;28;20179;-45
2021/04/15 06:18:31;;;;;;;14.25;8.13;;;2.20;99.90;;;;;;5090581;28;20030;-47
2021/04/15 06:21:05;;;;;;;13.55;7.60;;;2.30;99.90;;;;;;5084577;28;20523;-45
2021/04/15 06:23:57;;;;;;;15.43;7.97;;;2.50;99.90;;;;;;5087319;28;20473;-45
2021/04/15 06:26:31;;;;;;;13.15;7.95;;;2.60;99.90;;;;;;5069530;28;20119;-45
2021/04/15 06:29:00;;;;;;;11.48;7.75;;;2.60;99.90;;;;;;5086687;28;20035;-44
2021/04/15 06:31:30;;;;;;;15.20;7.63;;;2.70;99.90;;;;;;5086986;28;20035;-45
2021/04/15 06:34:02;;;;;;;16.93;7.20;;;2.80;99.90;;;;;;5086452;28;20392;-44
2021/04/15 06:36:54;;;;;;;17.27;8.02;;;2.90;99.90;;;;;;5083232;28;20262;-45
2021/04/15 06:39:28;;;;;;;18.90;6.00;;;2.90;99.90;;;;;;5084419;28;20036;-45
2021/04/15 06:42:16;;;;;;;11.43;5.88;;;3.10;99.90;;;;;;5086476;28;20546;-45
2021/04/15 06:44:57;;;;;;;10.75;6.50;;;3.10;99.90;;;;;;5064218;28;20024;-45
2021/04/15 06:47:49;;;;;;;10.35;5.88;;;3.20;99.90;;;;;;5083146;28;20036;-45
2021/04/15 06:50:57;;;;;;;12.88;7.10;;;3.40;99.90;;;;;;5085927;28;20091;-46
2021/04/15 06:53:48;;;;;;;13.23;5.75;;;3.60;99.90;;;;;;5083920;28;20205;-46
2021/04/15 06:56:28;;;;;;;10.68;5.82;;;3.70;99.90;;;;;;5087046;28;20020;-44
2021/04/15 06:59:35;;;;;;;13.55;6.18;;;3.80;99.90;;;;;;5086758;28;20024;-44
2021/04/15 07:02:09;;;;;;;15.93;6.35;;;3.90;99.90;;;;;;5086812;28;20108;-45
2021/04/15 07:04:51;;;;;;;16.83;5.78;;;4.10;99.90;;;;;;5087029;28;20131;-46
2021/04/15 07:07:39;;;;;;;16.95;5.95;;;4.20;99.90;;;;;;5086740;28;20016;-44
2021/04/15 07:10:28;;;;;;;11.88;6.07;;;4.30;99.90;;;;;;5068368;28;20122;-45
2021/04/15 07:13:31;;;;;;;10.40;6.55;;;4.40;99.90;;;;;;5086687;28;20035;-44
2021/04/15 07:16:26;;;;;;;11.02;6.50;;;4.50;99.90;;;;;;5077131;28;20580;-45
2021/04/15 07:19:14;;;;;;;13.00;5.47;;;4.60;99.90;;;;;;5066594;28;20053;-45
2021/04/15 07:21:42;;;;;;;15.88;5.82;;;4.70;99.90;;;;;;5066867;28;20046;-45
2021/04/15 07:24:23;;;;;;;9.93;5.55;;;4.80;99.90;;;;;;5066741;28;20489;-45
2021/04/15 07:27:11;;;;;;;9.50;4.93;;;5.00;99.90;;;;;;5066587;28;20024;-44
2021/04/15 07:30:01;;;;;;;9.55;5.13;;;5.10;99.90;;;;;;5065969;28;20031;-45
2021/04/15 07:32:43;;;;;;;8.05;4.50;;;5.20;99.90;;;;;;5065815;28;20422;-44
2021/04/15 07:35:46;;;;;;;10.70;5.88;;;5.40;99.90;;;;;;5078123;28;20089;-45
2021/04/15 07:38:50;;;;;;;10.77;4.90;;;5.40;99.90;;;;;;5086737;28;20414;-45
2021/04/15 07:41:54;;;;;;;16.15;5.20;;;5.50;99.90;;;;;;5086903;28;20029;-47
2021/04/15 07:44:32;;;;;;;8.85;5.38;;;5.80;99.90;;;;;;5086653;28;20103;-45
2021/04/15 07:47:00;;;;;;;10.77;5.05;;;6.10;99.90;;;;;;5088240;28;20028;-45
2021/04/15 07:49:44;;;;;;;10.35;5.28;;;6.20;99.90;;;;;;5090046;28;20036;-44
2021/04/15 07:52:47;;;;;;;9.02;5.45;;;6.40;99.90;;;;;;5090655;28;20038;-46
2021/04/15 07:55:31;;;;;;;14.27;5.60;;;6.70;99.90;;;;;;5090422;28;20455;-45
2021/04/15 07:58:18;;;;;;;18.40;5.40;;;7.20;99.90;;;;;;5071376;28;20509;-45
2021/04/15 08:01:07;;;;;;;14.43;5.40;;;7.60;99.90;;;;;;5089838;28;20219;-45
2021/04/15 08:03:55;;;;;;;11.88;7.18;;;7.70;99.90;;;;;;5090590;28;20020;-45
2021/04/15 08:07:00;;;;;;;17.20;10.88;;;8.20;99.90;;;;;;5089989;28;20097;-47
2021/04/15 08:09:42;;;;;;;12.27;5.30;;;8.60;99.90;;;;;;5089627;28;20027;-45
2021/04/15 08:12:43;;;;;;;11.23;4.53;;;9.10;99.90;;;;;;5090341;28;20077;-45
2021/04/15 08:15:39;;;;;;;7.35;4.10;;;9.30;97.60;;;;;;5089079;28;20023;-45
2021/04/15 08:18:32;;;;;;;10.25;4.53;;;9.10;97.30;;;;;;5090527;28;20271;-45
2021/04/15 08:21:28;;;;;;;5.65;3.50;;;9.30;95.30;;;;;;5086773;28;20027;-48
2021/04/15 08:24:11;;;;;;;10.93;3.88;;;9.50;96.70;;;;;;5089130;28;20020;-46
2021/04/15 08:27:09;;;;;;;7.15;3.60;;;9.60;93.80;;;;;;5086642;28;20447;-46
2021/04/15 08:29:54;;;;;;;8.75;4.28;;;10.10;93.80;;;;;;5088949;28;20248;-46
2021/04/15 08:32:48;;;;;;;8.00;4.00;;;10.60;90.60;;;;;;5088726;28;20492;-45
2021/04/15 08:35:55;;;;;;;7.45;4.20;;;10.80;89.60;;;;;;5089060;28;20301;-46
2021/04/15 08:38:34;;;;;;;7.18;3.92;;;11.70;81.30;;;;;;5086543;28;20020;-46
2021/04/15 08:41:24;;;;;;;9.20;4.45;;;12.10;80.30;;;;;;5086853;28;20020;-48
2021/04/15 08:44:20;;;;;;;7.03;4.22;;;12.70;76.40;;;;;;5088667;28;20101;-46
2021/04/15 08:47:22;;;;;;;6.00;3.72;;;12.20;76.30;;;;;;5087403;28;20131;-46
2021/04/15 08:50:10;;;;;;;6.47;4.03;;;12.40;74.60;;;;;;5088234;28;20016;-45
2021/04/15 08:52:59;;;;;;;8.75;3.83;;;12.50;76.20;;;;;;5086585;28;20036;-46
2021/04/15 08:55:39;;;;;;;10.00;4.80;;;12.60;73.40;;;;;;5087767;28;20107;-46
2021/04/15 08:58:47;;;;;;;8.48;4.70;;;12.90;70.10;;;;;;5085610;28;20016;-46
2021/04/15 09:01:35;;;;;;;9.57;4.57;;;13.00;71.80;;;;;;5088040;28;20089;-48
2021/04/15 09:04:16;;;;;;;8.00;3.85;;;13.40;69.50;;;;;;5087872;28;20020;-46
2021/04/15 09:06:58;;;;;;;7.93;3.75;;;13.60;68.90;;;;;;5088154;28;20026;-47
2021/04/15 09:09:35;;;;;;;8.95;5.78;;;13.90;66.50;;;;;;5086504;28;20492;-46
2021/04/15 09:12:20;;;;;;;10.07;4.13;;;14.20;65.10;;;;;;5086487;28;20035;-46
2021/04/15 09:15:17;;;;;;;7.13;3.20;;;14.60;59.90;;;;;;5088474;28;20020;-45
2021/04/15 09:17:55;;;;;;;9.02;4.38;;;14.50;62.50;;;;;;5085939;28;20051;-48
2021/04/15 09:20:33;;;;;;;6.78;3.85;;;15.30;60.00;;;;;;5086342;28;20069;-45
2021/04/15 09:23:23;;;;;;;7.07;3.97;;;15.80;59.60;;;;;;5086074;28;20028;-45
2021/04/15 09:26:20;;;;;;;6.22;3.58;;;15.90;56.40;;;;;;5087725;28;20042;-46
2021/04/15 09:29:07;;;;;;;7.22;3.80;;;16.60;55.80;;;;;;5086448;28;20069;-47
2021/04/15 09:31:52;;;;;;;5.43;3.38;;;17.60;52.70;;;;;;5087579;28;20793;-46
2021/04/15 09:34:55;;;;;;;6.93;3.67;;;17.50;49.50;;;;;;5085051;28;20065;-44
2021/04/15 09:37:40;;;;;;;8.32;4.25;;;17.30;50.40;;;;;;5085509;28;20278;-45
2021/04/15 09:40:08;;;;;;;5.68;4.00;;;16.70;53.30;;;;;;5086446;28;20016;-48
2021/04/15 09:43:00;;;;;;;7.57;4.18;;;17.30;53.00;;;;;;5087869;28;20020;-46
2021/04/15 09:45:44;;;;;;;5.50;3.45;;;18.40;48.60;;;;;;5086375;28;20099;-45
2021/04/15 09:48:42;;;;;;;5.45;3.08;;;19.30;45.00;;;;;;5086556;28;20024;-46
2021/04/15 09:51:36;;;;;;;7.25;3.40;;;18.90;46.20;;;;;;5086870;28;20063;-46
2021/04/15 09:54:15;;;;;;;5.10;2.75;;;19.00;44.10;;;;;;5086100;28;20042;-45
2021/04/15 09:57:05;;;;;;;4.75;3.38;;;19.80;44.10;;;;;;5085932;28;20024;-46
2021/04/15 10:00:08;;;;;;;4.30;2.72;;;20.60;42.40;;;;;;5085880;28;20077;-47
2021/04/15 10:02:45;;;;;;;6.93;3.85;;;20.90;40.80;;;;;;5086938;28;20020;-47
2021/04/15 10:05:35;;;;;;;3.97;3.03;;;21.50;39.50;;;;;;5069715;28;20507;-46
2021/04/15 10:08:09;;;;;;;2.75;2.13;;;22.00;40.70;;;;;;5085115;28;20071;-46
2021/04/15 10:11:01;;;;;;;4.00;2.22;;;22.40;39.20;;;;;;5087074;28;20032;-46
2021/04/15 10:14:04;;;;;;;4.07;2.90;;;23.00;35.80;;;;;;5085938;28;20077;-46
2021/04/15 10:16:45;;;;;;;4.70;3.20;;;23.20;36.80;;;;;;5086497;28;20016;-46
2021/04/15 10:19:32;;;;;;;3.78;2.80;;;21.60;36.50;;;;;;5086531;28;20008;-50
2021/04/15 10:22:15;;;;;;;3.55;2.60;;;20.70;37.80;;;;;;5087518;28;20095;-47
2021/04/15 10:24:46;;;;;;;6.10;3.15;;;19.40;39.70;;;;;;5084798;28;20477;-48
2021/04/15 10:27:37;;;;;;;4.57;2.17;;;18.40;40.30;;;;;;5087189;28;20043;-49
2021/04/15 10:30:32;;;;;;;7.30;2.95;;;17.20;44.40;;;;;;5085428;28;20082;-47
2021/04/15 10:33:24;;;;;;;6.38;3.00;;;16.50;45.60;;;;;;5083931;28;20035;-46
2021/04/15 10:36:16;;;;;;;4.93;3.03;;;15.80;46.90;;;;;;5085259;28;20059;-46
2021/04/15 10:39:09;;;;;;;4.85;2.60;;;15.00;48.70;;;;;;5083111;28;20222;-47
2021/04/15 10:41:55;;;;;;;2.63;2.30;;;14.40;49.70;;;;;;5086036;28;20020;-46
2021/04/15 10:44:56;;;;;;;3.17;2.15;;;14.30;48.10;;;;;;5084686;28;20434;-46
2021/04/15 10:48:03;;;;;;;2.92;1.80;;;15.10;48.90;;;;;;5083238;28;20024;-46
2021/04/15 10:50:52;;;;;;;3.22;1.83;;;15.80;45.20;;;;;;5072514;28;20042;-49
2021/04/15 10:53:48;;;;;;;4.35;1.95;;;15.60;44.10;;;;;;5087097;28;20056;-46
2021/04/15 10:56:23;;;;;;;4.00;1.90;;;15.00;43.30;;;;;;5069219;28;20468;-46
2021/04/15 10:59:01;;;;;;;3.22;1.50;;;15.00;44.00;;;;;;5086871;28;20115;-47
2021/04/15 11:01:44;;;;;;;5.18;1.70;;;14.40;46.70;;;;;;5087838;28;20098;-49
2021/04/15 11:04:10;;;;;;;3.22;1.67;;;13.80;46.90;;;;;;5087678;28;20031;-46
2021/04/15 11:06:41;;;;;;;3.30;1.85;;;13.00;48.70;;;;;;5087046;28;20032;-46
2021/04/15 11:09:34;;;;;;;2.63;1.75;;;12.60;50.80;;;;;;5086885;28;20028;-48
2021/04/15 11:12:22;;;;;;;3.70;2.03;;;12.30;50.20;;;;;;5087513;28;20023;-45
2021/04/15 11:14:51;;;;;;;2.83;1.58;;;11.80;50.40;;;;;;5086837;28;20069;-45
2021/04/15 11:17:42;;;;;;;3.33;2.30;;;11.60;51.30;;;;;;5087595;28;20039;-45
2021/04/15 11:20:25;;;;;;;3.72;1.63;;;11.60;54.00;;;;;;5087285;28;20016;-46
2021/04/15 11:23:27;;;;;;;3.35;1.70;;;11.50;54.70;;;;;;5072197;28;20081;-46
2021/04/15 11:25:54;;;;;;;5.82;1.75;;;11.60;54.20;;;;;;5035644;28;20024;-47
2021/04/15 11:28:23;;;;;;;3.70;2.05;;;11.50;52.50;;;;;;5090456;28;20013;-45
2021/04/15 11:30:49;;;;;;;2.53;2.10;;;11.60;53.90;;;;;;5090998;28;20028;-45
2021/04/15 11:33:36;;;;;;;4.43;2.20;;;11.60;51.80;;;;;;5090049;28;20028;-45
2021/04/15 11:36:22;;;;;;;5.53;2.40;;;11.50;53.60;;;;;;5090677;28;20118;-45
2021/04/15 11:39:06;;;;;;;2.67;1.85;;;11.40;54.70;;;;;;5072430;28;20032;-45
2021/04/15 11:41:46;;;;;;;4.35;2.03;;;11.20;53.90;;;;;;5090780;28;20069;-45
2021/04/15 11:44:27;;;;;;;2.08;1.73;;;11.10;54.50;;;;;;5091615;28;20440;-46
2021/04/15 11:46:57;;;;;;;3.85;1.92;;;11.20;55.10;;;;;;5091058;28;20029;-46
2021/04/15 11:49:32;;;;;;;3.72;2.00;;;11.40;55.30;;;;;;5090111;28;20456;-45
2021/04/15 11:52:27;;;;;;;4.35;2.10;;;11.50;54.00;;;;;;5091122;28;20020;-46
2021/04/15 11:54:52;;;;;;;2.53;1.85;;;11.50;52.30;;;;;;5090563;28;20082;-45
2021/04/15 11:57:26;;;;;;;1.55;1.25;;;11.60;52.60;;;;;;5084904;28;20500;-46
2021/04/15 12:00:24;;;;;;;5.55;1.80;;;11.40;50.60;;;;;;5083027;28;20416;-45
2021/04/15 12:02:55;;;;;;;3.58;1.20;;;11.50;51.10;;;;;;5088785;28;20158;-45
2021/04/15 12:05:40;;;;;;;1.67;1.25;;;11.40;48.30;;;;;;5071620;28;20016;-45
2021/04/15 12:08:21;;;;;;;2.40;1.38;;;11.30;48.30;;;;;;5087211;28;20530;-45
2021/04/15 12:11:32;;;;;;;2.78;1.55;;;11.30;49.50;;;;;;5089253;28;20070;-45
2021/04/15 12:14:10;;;;;;;3.42;1.20;;;11.50;48.90;;;;;;5089054;28;20054;-46
2021/04/15 12:16:50;;;;;;;2.47;1.50;;;11.50;49.40;;;;;;5089351;28;20115;-46
2021/04/15 12:19:40;;;;;;;1.27;1.00;;;11.50;49.20;;;;;;5089523;28;20035;-45
2021/04/15 12:22:11;;;;;;;3.60;1.45;;;11.50;49.50;;;;;;5089867;28;20426;-44
2021/04/15 12:24:48;;;;;;;2.53;1.40;;;11.10;47.60;;;;;;5087759;28;20116;-45
2021/04/15 12:27:24;;;;;;;2.72;1.58;;;11.10;47.60;;;;;;5088794;28;20028;-46
2021/04/15 12:30:20;;;;;;;1.73;1.10;;;11.10;48.00;;;;;;5089388;28;20020;-45
2021/04/15 12:33:02;;;;;;;4.00;1.30;;;10.90;50.70;;;;;;5086317;28;20063;-45
2021/04/15 12:35:44;;;;;;;15.57;6.45;;;10.70;48.20;;;;;;5087932;28;20024;-45
2021/04/15 12:38:18;;;;;;;9.98;5.03;;;10.70;47.90;;;;;;5089409;28;20497;-45
2021/04/15 12:40:48;;;;;;;1.33;1.17;;;10.60;49.20;;;;;;5089905;28;20024;-45
2021/04/15 12:43:27;;;;;;;1.80;1.13;;;10.60;49.70;;;;;;5089934;28;20032;-44
2021/04/15 12:46:08;;;;;;;1.55;1.10;;;10.60;49.70;;;;;;5089737;28;20024;-45
2021/04/15 12:48:41;;;;;;;1.55;1.13;;;10.50;50.10;;;;;;5088317;28;20023;-48
2021/04/15 12:51:09;;;;;;;1.02;0.82;;;10.50;50.60;;;;;;5089827;28;20072;-46
2021/04/15 12:53:38;;;;;;;1.85;1.10;;;10.60;49.70;;;;;;5089780;28;20030;-45
2021/04/15 12:56:05;;;;;;;2.45;1.02;;;10.60;51.30;;;;;;5071514;28;20127;-46
2021/04/15 12:58:31;;;;;;;1.55;1.30;;;10.80;50.30;;;;;;5089040;28;20023;-46
2021/04/15 13:00:59;;;;;;;2.50;1.30;;;11.00;51.60;;;;;;5071219;28;20028;-46
2021/04/15 13:03:29;;;;;;;2.00;1.40;;;11.20;52.30;;;;;;5088635;28;20095;-45
2021/04/15 13:05:59;;;;;;;2.17;1.27;;;11.70;54.10;;;;;;5087589;28;20031;-46
2021/04/15 13:08:26;;;;;;;1.63;1.48;;;12.30;51.70;;;;;;5088364;28;20110;-45
2021/04/15 13:10:53;;;;;;;4.70;1.55;;;12.90;52.50;;;;;;5089433;28;20384;-46
2021/04/15 13:13:45;;;;;;;1.38;1.20;;;13.30;52.00;;;;;;5089648;28;20023;-46
2021/04/15 13:16:38;;;;;;;2.38;1.40;;;13.70;50.10;;;;;;5089235;28;20030;-46
2021/04/15 13:19:09;;;;;;;1.33;1.10;;;13.70;46.50;;;;;;5087953;28;20095;-45
2021/04/15 13:21:37;;;;;;;2.63;1.50;;;13.30;46.40;;;;;;5090246;28;20306;-46
2021/04/15 13:25:02;;;;;;;2.92;1.50;;;13.20;47.50;;;;;;5071778;28;20070;-45
2021/04/15 13:27:36;;;;;;;1.88;1.58;;;12.90;51.90;;;;;;4966955;28;20042;-47
2021/04/15 13:30:13;;;;;;;2.70;1.90;;;12.80;53.60;;;;;;4951357;28;20038;-49
2021/04/15 13:33:11;;;;;;;3.80;2.00;;;12.60;53.80;;;;;;5033283;28;20242;-45
2021/04/15 13:35:59;;;;;;;4.45;2.47;;;12.60;54.40;;;;;;5089115;28;20077;-45
2021/04/15 13:38:34;;;;;;;4.95;2.50;;;12.80;52.60;;;;;;5087468;28;20044;-45
2021/04/15 13:41:03;;;;;;;3.90;2.08;;;12.70;51.80;;;;;;5086925;28;20019;-46
2021/04/15 13:43:40;;;;;;;1.55;1.25;;;12.30;52.20;;;;;;5088978;28;20119;-45
2021/04/15 13:46:28;;;;;;;2.03;1.30;;;12.20;52.30;;;;;;5088551;28;20477;-45
2021/04/15 13:49:02;;;;;;;2.33;1.38;;;12.00;52.90;;;;;;5086304;28;20587;-46
2021/04/15 13:51:57;;;;;;;3.40;1.83;;;11.60;52.70;;;;;;5070043;28;20378;-45
2021/04/15 13:54:31;;;;;;;3.80;1.80;;;11.50;53.20;;;;;;5088382;28;20039;-45
2021/04/15 13:57:04;;;;;;;3.25;2.05;;;11.10;53.90;;;;;;5088159;28;20040;-45